createdAt,value
2018-01-02T00:01:48.536Z,8.60
2018-01-02T00:04:18.152Z,11.03
2018-01-02T00:06:47.755Z,9.60
2018-01-02T00:09:17.355Z,10.57
2018-01-02T00:11:46.954Z,10.20
2018-01-02T00:14:16.567Z,8.27
2018-01-02T00:16:46.270Z,5.40
2018-01-02T00:19:15.147Z,7.30
2018-01-02T00:21:43.953Z,6.10
2018-01-02T00:24:12.784Z,5.57
2018-01-02T00:26:42.553Z,7.03
2018-01-02T00:29:12.151Z,4.53
2018-01-02T00:31:40.988Z,5.43
2018-01-02T00:34:09.827Z,6.27
2018-01-02T00:36:38.707Z,6.80
2018-01-02T00:39:07.542Z,6.60
2018-01-02T00:41:36.376Z,5.37
2018-01-02T00:44:05.185Z,5.57
2018-01-02T00:46:34.026Z,5.03
2018-01-02T00:49:02.887Z,7.80
2018-01-02T00:51:32.159Z,7.30
2018-01-02T00:54:01.910Z,5.10
2018-01-02T00:56:30.750Z,14.63
2018-01-02T00:58:59.604Z,5.83
2018-01-02T01:01:29.206Z,6.70
2018-01-02T01:03:59.414Z,6.73
2018-01-02T01:06:29.042Z,8.23
2018-01-02T01:08:58.007Z,6.13
2018-01-02T01:11:26.859Z,10.03
2018-01-02T01:13:55.691Z,7.40
2018-01-02T01:16:24.534Z,16.17
2018-01-02T01:18:53.367Z,7.13
2018-01-02T01:21:22.190Z,8.53
2018-01-02T01:23:51.034Z,9.50
2018-01-02T01:26:20.031Z,7.10
2018-01-02T01:28:49.774Z,7.47
2018-01-02T01:31:19.397Z,5.87
2018-01-02T01:33:48.234Z,10.73
2018-01-02T01:36:17.091Z,5.30
2018-01-02T01:38:45.957Z,3.23
2018-01-02T01:41:14.814Z,4.63
2018-01-02T01:43:43.642Z,6.13
2018-01-02T01:46:12.450Z,4.73
2018-01-02T01:48:53.262Z,2.27
2018-01-02T01:51:22.090Z,4.20
2018-01-02T01:53:50.929Z,4.20
2018-01-02T01:56:20.173Z,1.97
2018-01-02T01:58:49.019Z,5.67
2018-01-02T02:01:17.853Z,2.50
2018-01-02T02:03:46.690Z,1.60
2018-01-02T02:06:15.556Z,5.20
2018-01-02T02:08:44.380Z,4.20
2018-01-02T02:11:13.214Z,5.47
2018-01-02T02:13:42.017Z,4.10
2018-01-02T02:16:10.858Z,4.60
2018-01-02T02:18:40.442Z,3.70
2018-01-02T02:21:09.277Z,3.07
2018-01-02T02:23:38.189Z,3.23
2018-01-02T02:26:07.012Z,6.40
2018-01-02T02:28:36.748Z,3.57
2018-01-02T02:31:06.346Z,5.87
2018-01-02T02:33:35.180Z,5.57
2018-01-02T02:36:04.003Z,3.40
2018-01-02T02:38:32.844Z,7.23
2018-01-02T02:41:07.465Z,6.57
2018-01-02T02:43:36.305Z,9.67
2018-01-02T02:46:05.134Z,5.93
2018-01-02T02:48:34.754Z,4.83
2018-01-02T02:51:03.584Z,6.00
2018-01-02T02:53:32.382Z,7.80
2018-01-02T02:56:01.449Z,12.50
2018-01-02T02:58:30.269Z,11.97
2018-01-02T03:00:59.113Z,11.20
2018-01-02T03:03:27.950Z,29.27
2018-01-02T03:05:56.810Z,21.00
2018-01-02T03:08:26.430Z,29.73
2018-01-02T03:10:56.031Z,22.20
2018-01-02T03:13:25.643Z,25.97
2018-01-02T03:15:55.290Z,28.77
2018-01-02T03:18:24.105Z,31.43
2018-01-02T03:20:52.958Z,31.23
2018-01-02T03:23:21.801Z,35.43
2018-01-02T03:25:51.423Z,33.90
2018-01-02T03:28:21.066Z,41.10
2018-01-02T03:30:50.641Z,39.83
2018-01-02T03:33:19.474Z,35.17
2018-01-02T03:35:49.867Z,38.13
2018-01-02T03:38:18.723Z,39.77
2018-01-02T03:40:48.334Z,38.90
2018-01-02T03:43:17.957Z,45.20
2018-01-02T03:45:46.786Z,43.60
2018-01-02T03:48:15.621Z,40.60
2018-01-02T03:50:44.797Z,49.00
2018-01-02T03:53:14.429Z,50.03
2018-01-02T03:55:44.038Z,50.17
2018-01-02T03:58:13.642Z,49.23
2018-01-02T04:00:43.280Z,50.10
2018-01-02T04:03:12.141Z,46.30
2018-01-02T04:05:40.971Z,44.27
2018-01-02T04:08:09.810Z,44.87
2018-01-02T04:10:38.658Z,47.60
2018-01-02T04:13:07.747Z,42.00
2018-01-02T04:15:36.580Z,43.87
2018-01-02T04:18:05.655Z,40.40
2018-01-02T04:20:35.294Z,45.70
2018-01-02T04:23:04.163Z,47.23
2018-01-02T04:25:33.758Z,41.10
2018-01-02T04:28:03.361Z,42.93
2018-01-02T04:30:32.970Z,40.80
2018-01-02T04:33:02.581Z,36.40
2018-01-02T04:35:32.182Z,36.70
2018-01-02T04:38:01.353Z,42.03
2018-01-02T04:40:31.715Z,41.33
2018-01-02T04:43:01.336Z,43.30
2018-01-02T04:45:30.190Z,41.83
2018-01-02T04:47:59.794Z,36.83
2018-01-02T04:50:29.414Z,40.10
2018-01-02T04:52:59.045Z,38.40
2018-01-02T04:55:28.701Z,35.60
2018-01-02T04:57:57.542Z,39.73
2018-01-02T05:00:26.383Z,39.60
2018-01-02T05:02:55.223Z,32.33
2018-01-02T05:05:24.070Z,37.00
2018-01-02T05:07:52.918Z,34.50
2018-01-02T05:10:23.290Z,34.73
2018-01-02T05:12:52.174Z,35.97
2018-01-02T05:15:21.058Z,34.00
2018-01-02T05:17:49.877Z,33.27
2018-01-02T05:20:18.738Z,39.70
2018-01-02T05:22:47.596Z,35.70
2018-01-02T05:25:17.218Z,34.63
2018-01-02T05:27:46.842Z,36.10
2018-01-02T05:30:16.560Z,38.90
2018-01-02T05:32:45.399Z,38.23
2018-01-02T05:35:14.259Z,48.53
2018-01-02T05:37:43.654Z,38.27
2018-01-02T05:40:12.486Z,39.17
2018-01-02T05:42:42.923Z,38.43
2018-01-02T05:45:12.510Z,35.80
2018-01-02T05:47:41.370Z,40.13
2018-01-02T05:50:10.205Z,37.80
2018-01-02T05:52:39.826Z,31.00
2018-01-02T05:55:09.422Z,37.67
2018-01-02T05:57:39.046Z,31.50
2018-01-02T06:00:08.650Z,31.03
2018-01-02T06:02:37.502Z,31.30
2018-01-02T06:05:07.102Z,38.93
2018-01-02T06:07:36.752Z,35.27
2018-01-02T06:10:06.301Z,31.17
2018-01-02T06:12:35.152Z,36.80
2018-01-02T06:15:03.990Z,35.47
2018-01-02T06:17:33.637Z,31.13
2018-01-02T06:20:02.490Z,33.40
2018-01-02T06:22:32.850Z,39.03
2018-01-02T06:25:01.690Z,41.80
2018-01-02T06:27:30.526Z,35.20
2018-01-02T06:29:59.384Z,36.60
2018-01-02T06:32:28.979Z,37.07
2018-01-02T06:34:57.829Z,33.23
2018-01-02T06:37:26.666Z,34.10
2018-01-02T06:39:56.322Z,36.30
2018-01-02T06:42:25.163Z,37.20
2018-01-02T06:44:54.782Z,37.80
2018-01-02T06:47:24.389Z,36.43
2018-01-02T06:49:54.038Z,40.23
2018-01-02T06:52:22.873Z,39.20
2018-01-02T06:54:52.525Z,38.27
2018-01-02T06:57:22.130Z,37.10
2018-01-02T06:59:51.922Z,39.00
2018-01-02T07:02:21.528Z,38.20
2018-01-02T07:04:50.926Z,36.57
2018-01-02T07:07:20.646Z,40.20
2018-01-02T07:09:49.481Z,45.10
2018-01-02T07:12:18.327Z,39.10
2018-01-02T07:14:47.168Z,33.90
2018-01-02T07:17:16.054Z,42.00
2018-01-02T07:19:44.921Z,33.40
2018-01-02T07:22:13.741Z,39.43
2018-01-02T07:24:43.368Z,36.43
2018-01-02T07:27:13.279Z,38.90
2018-01-02T07:29:42.094Z,33.77
2018-01-02T07:32:10.966Z,42.67
2018-01-02T07:34:39.817Z,35.47
2018-01-02T07:37:10.262Z,34.93
2018-01-02T07:39:39.914Z,42.63
2018-01-02T07:42:08.765Z,35.47
2018-01-02T07:44:38.410Z,38.60
2018-01-02T07:47:07.497Z,39.93
2018-01-02T07:49:36.377Z,39.50
2018-01-02T07:52:05.227Z,38.13
2018-01-02T07:54:35.599Z,34.60
2018-01-02T07:57:04.438Z,34.00
2018-01-02T07:59:33.434Z,35.33
2018-01-02T08:02:03.791Z,40.10
2018-01-02T08:04:33.387Z,39.07
2018-01-02T08:07:02.380Z,34.90
2018-01-02T08:09:31.326Z,38.33
2018-01-02T08:12:00.181Z,38.67
2018-01-02T08:14:29.825Z,35.90
2018-01-02T08:16:58.659Z,34.40
2018-01-02T08:19:27.503Z,32.57
2018-01-02T08:21:56.363Z,29.53
2018-01-02T08:24:25.970Z,27.20
2018-01-02T08:26:55.603Z,29.77
2018-01-02T08:29:24.454Z,31.80
2018-01-02T08:31:53.461Z,33.60
2018-01-02T08:34:23.085Z,33.80
2018-01-02T08:36:51.929Z,33.00
2018-01-02T08:39:20.769Z,30.03
2018-01-02T08:41:50.178Z,31.07
2018-01-02T08:44:19.107Z,33.10
2018-01-02T08:46:47.921Z,35.53
2018-01-02T08:49:17.520Z,37.13
2018-01-02T08:51:47.169Z,32.17
2018-01-02T08:54:16.001Z,31.70
2018-01-02T08:56:44.866Z,28.93
2018-01-02T08:59:13.706Z,33.03
2018-01-02T09:01:43.297Z,28.40
2018-01-02T09:04:12.138Z,26.93
2018-01-02T09:06:40.998Z,27.33
2018-01-02T09:09:09.902Z,25.00
2018-01-02T09:11:38.762Z,24.70
2018-01-02T09:14:11.314Z,25.20
2018-01-02T09:16:40.911Z,25.80
2018-01-02T09:19:10.566Z,22.17
2018-01-02T09:21:39.406Z,23.37
2018-01-02T09:24:08.255Z,19.97
2018-01-02T09:26:37.171Z,20.90
2018-01-02T09:29:07.990Z,17.53
2018-01-02T09:31:36.822Z,18.87
2018-01-02T09:34:06.457Z,14.57
2018-01-02T09:36:35.294Z,18.33
2018-01-02T09:39:04.149Z,14.10
2018-01-02T09:41:33.006Z,13.60
2018-01-02T09:44:02.608Z,14.63
2018-01-02T09:46:32.234Z,11.27
2018-01-02T09:49:01.590Z,12.07
2018-01-02T09:51:30.441Z,11.70
2018-01-02T09:53:59.620Z,15.53
2018-01-02T09:56:28.537Z,15.87
2018-01-02T09:58:57.387Z,18.10
2018-01-02T10:01:26.986Z,21.63
2018-01-02T10:03:56.639Z,18.83
2018-01-02T10:06:25.486Z,18.07
2018-01-02T10:08:55.399Z,20.80
2018-01-02T10:11:25.007Z,20.27
2018-01-02T10:13:54.630Z,23.90
2018-01-02T10:16:23.497Z,16.97
2018-01-02T10:18:53.102Z,17.43
2018-01-02T10:21:22.737Z,15.97
2018-01-02T10:23:51.578Z,22.20
2018-01-02T10:26:21.180Z,24.93
2018-01-02T10:28:50.047Z,20.47
2018-01-02T10:31:18.910Z,33.10
2018-01-02T10:33:47.758Z,26.00
2018-01-02T10:36:17.207Z,22.77
2018-01-02T10:38:46.055Z,22.00
2018-01-02T10:41:15.673Z,17.93
2018-01-02T10:43:45.306Z,17.53
2018-01-02T10:46:14.158Z,21.90
2018-01-02T10:48:43.761Z,19.80
2018-01-02T10:51:12.741Z,18.97
2018-01-02T10:53:41.582Z,16.27
2018-01-02T10:56:10.429Z,16.00
2018-01-02T10:58:39.249Z,17.57
2018-01-02T11:01:08.869Z,11.33
2018-01-02T11:03:37.705Z,12.33
2018-01-02T11:06:06.562Z,8.10
2018-01-02T11:08:35.397Z,16.20
2018-01-02T11:11:09.946Z,10.73
2018-01-02T11:13:44.363Z,9.07
2018-01-02T11:16:13.197Z,9.87
2018-01-02T11:18:42.031Z,13.97
2018-01-02T11:21:10.874Z,14.40
2018-01-02T11:23:40.140Z,7.77
2018-01-02T11:26:08.978Z,16.73
2018-01-02T11:28:38.570Z,11.20
2018-01-02T11:31:07.427Z,11.97
2018-01-02T11:33:37.209Z,14.03
2018-01-02T11:36:06.080Z,12.77
2018-01-02T11:38:35.682Z,10.33
2018-01-02T11:41:05.286Z,10.33
2018-01-02T11:43:34.270Z,7.10
2018-01-02T11:46:03.103Z,10.83
2018-01-02T11:48:31.942Z,12.37
2018-01-02T11:51:00.774Z,10.53
2018-01-02T11:53:29.630Z,10.50
2018-01-02T11:55:59.240Z,12.87
2018-01-02T11:58:28.848Z,14.80
2018-01-02T12:00:58.455Z,12.20
2018-01-02T12:03:28.062Z,12.80
2018-01-02T12:05:57.666Z,11.27
2018-01-02T12:08:28.089Z,11.80
2018-01-02T12:10:57.788Z,9.50
2018-01-02T12:13:26.612Z,7.50
2018-01-02T12:15:55.446Z,9.57
2018-01-02T12:18:24.301Z,16.80
2018-01-02T12:20:53.148Z,9.70
2018-01-02T12:23:22.539Z,7.80
2018-01-02T12:25:51.360Z,12.17
2018-01-02T12:28:20.215Z,13.60
2018-01-02T12:30:49.054Z,12.33
2018-01-02T12:33:17.896Z,8.63
2018-01-02T12:35:46.744Z,11.07
2018-01-02T12:38:15.604Z,12.37
2018-01-02T12:40:44.457Z,11.73
2018-01-02T12:45:49.363Z,17.40
2018-01-02T12:48:18.283Z,12.27
2018-01-02T12:50:47.158Z,13.23
2018-01-02T12:53:15.993Z,9.53
2018-01-02T12:55:45.026Z,11.17
2018-01-02T12:58:13.884Z,8.70
2018-01-02T13:00:42.738Z,7.93
2018-01-02T13:03:12.340Z,6.23
2018-01-02T13:05:41.359Z,10.90
2018-01-02T13:08:10.221Z,14.70
2018-01-02T13:10:39.917Z,9.40
2018-01-02T13:13:09.542Z,11.93
2018-01-02T13:15:39.174Z,14.97
2018-01-02T13:18:08.025Z,11.30
2018-01-02T13:20:36.860Z,8.93
2018-01-02T13:23:05.707Z,9.00
2018-01-02T13:25:34.539Z,7.07
2018-01-02T13:28:03.391Z,15.17
2018-01-02T13:30:32.315Z,8.60
2018-01-02T13:33:01.133Z,9.13
2018-01-02T13:35:29.993Z,14.83
2018-01-02T13:37:58.807Z,14.07
2018-01-02T13:40:27.652Z,10.80
2018-01-02T13:42:57.282Z,11.00
2018-01-02T13:45:26.868Z,14.97
2018-01-02T13:47:56.491Z,12.53
2018-01-02T13:50:26.098Z,8.80
2018-01-02T13:52:54.918Z,13.43
2018-01-02T13:55:24.549Z,17.73
2018-01-02T13:57:53.385Z,15.10
2018-01-02T14:00:22.247Z,16.20
2018-01-02T14:02:51.867Z,13.23
2018-01-02T14:05:21.469Z,15.60
2018-01-02T14:07:51.095Z,11.40
2018-01-02T14:10:19.917Z,7.37
2018-01-02T14:12:48.771Z,10.67
2018-01-02T14:15:18.394Z,14.60
2018-01-02T14:17:48.026Z,12.17
2018-01-02T14:20:16.849Z,11.93
2018-01-02T14:22:45.694Z,10.50
2018-01-02T14:25:14.511Z,15.43
2018-01-02T14:27:43.347Z,9.53
2018-01-02T14:30:12.721Z,10.90
2018-01-02T14:32:41.554Z,12.07
2018-01-02T14:35:11.143Z,13.03
2018-01-02T14:37:40.438Z,11.00
2018-01-02T14:40:09.298Z,15.07
2018-01-02T14:42:38.141Z,8.17
2018-01-02T14:45:06.957Z,15.30
2018-01-02T14:47:35.826Z,10.23
2018-01-02T14:50:05.439Z,11.20
2018-01-02T14:52:34.255Z,10.40
2018-01-02T14:55:03.132Z,10.93
2018-01-02T14:57:32.734Z,10.50
2018-01-02T15:00:01.595Z,10.83
2018-01-02T15:02:31.222Z,7.53
2018-01-02T15:05:00.071Z,10.67
2018-01-02T15:07:28.897Z,9.50
2018-01-02T15:09:57.755Z,6.13
2018-01-02T15:12:26.589Z,11.93
2018-01-02T15:14:56.291Z,7.10
2018-01-02T15:17:25.901Z,10.73
2018-01-02T15:19:54.761Z,8.03
2018-01-02T15:22:23.619Z,7.50
2018-01-02T15:24:52.512Z,6.23
2018-01-02T15:27:21.954Z,9.40
2018-01-02T15:29:50.764Z,7.53
2018-01-02T15:32:20.401Z,7.00
2018-01-02T15:34:49.282Z,8.90
2018-01-02T15:37:18.534Z,12.67
2018-01-02T15:39:47.394Z,10.77
2018-01-02T15:42:16.242Z,9.33
2018-01-02T15:44:45.865Z,10.67
2018-01-02T15:47:14.706Z,9.27
2018-01-02T15:49:43.566Z,8.73
2018-01-02T15:52:12.392Z,8.37
2018-01-02T15:54:41.270Z,6.93
2018-01-02T15:57:10.118Z,6.40
2018-01-02T15:59:38.966Z,8.90
2018-01-02T16:02:07.814Z,14.57
2018-01-02T16:04:36.682Z,10.53
2018-01-02T16:07:05.502Z,10.73
2018-01-02T16:09:34.367Z,11.80
2018-01-02T16:12:03.248Z,10.83
2018-01-02T16:14:32.076Z,6.60
2018-01-02T16:17:00.928Z,5.83
2018-01-02T16:19:29.778Z,7.87
2018-01-02T16:21:59.408Z,10.93
2018-01-02T16:24:28.243Z,7.40
2018-01-02T16:26:57.079Z,9.53
2018-01-02T16:29:25.936Z,13.27
2018-01-02T16:31:54.754Z,9.00
2018-01-02T16:34:23.585Z,7.13
2018-01-02T16:36:52.417Z,6.90
2018-01-02T16:39:22.051Z,7.23
2018-01-02T16:41:50.900Z,10.70
2018-01-02T16:44:19.771Z,10.40
2018-01-02T16:46:48.673Z,4.80
2018-01-02T16:49:17.522Z,15.37
2018-01-02T16:51:46.390Z,7.60
2018-01-02T16:54:15.250Z,6.37
2018-01-02T16:56:45.633Z,6.17
2018-01-02T16:59:14.471Z,7.60
2018-01-02T17:01:44.057Z,5.67
2018-01-02T17:04:12.966Z,15.77
2018-01-02T17:06:42.611Z,20.17
2018-01-02T17:09:11.488Z,7.37
2018-01-02T17:11:40.869Z,9.53
2018-01-02T17:14:11.262Z,7.30
2018-01-02T17:16:40.080Z,12.77
2018-01-02T17:19:08.957Z,9.73
2018-01-02T17:21:39.534Z,8.37
2018-01-02T17:24:09.891Z,10.27
2018-01-02T17:26:39.524Z,4.87
2018-01-02T17:29:08.369Z,7.23
2018-01-02T17:31:38.001Z,6.10
2018-01-02T17:34:06.863Z,10.17
2018-01-02T17:36:36.518Z,8.40
2018-01-02T17:39:05.342Z,12.20
2018-01-02T17:41:34.215Z,5.93
2018-01-02T17:44:03.102Z,7.17
2018-01-02T17:46:32.045Z,15.50
2018-01-02T17:49:02.442Z,7.40
2018-01-02T17:51:32.033Z,8.00
2018-01-02T17:54:00.884Z,13.07
2018-01-02T17:56:29.828Z,11.50
2018-01-02T17:58:58.689Z,7.73
2018-01-02T18:01:27.567Z,5.10
2018-01-02T18:03:56.424Z,5.20
2018-01-02T18:06:26.026Z,6.03
2018-01-02T18:08:56.384Z,8.07
2018-01-02T18:11:25.247Z,11.27
2018-01-02T18:13:54.093Z,7.77
2018-01-02T18:16:22.932Z,4.57
2018-01-02T18:18:51.768Z,9.10
2018-01-02T18:21:20.614Z,8.30
2018-01-02T18:23:49.501Z,7.17
2018-01-02T18:26:19.118Z,8.17
2018-01-02T18:28:48.000Z,6.90
2018-01-02T18:31:16.844Z,14.83
2018-01-02T18:33:45.738Z,7.13
2018-01-02T18:36:14.608Z,12.73
2018-01-02T18:38:44.183Z,12.50
2018-01-02T18:41:13.097Z,8.50
2018-01-02T18:43:41.934Z,10.03
2018-01-02T18:46:10.802Z,9.47
2018-01-02T18:48:39.820Z,10.83
2018-01-02T18:51:08.665Z,14.83
2018-01-02T18:53:37.601Z,10.83
2018-01-02T18:56:06.514Z,9.47
2018-01-02T18:58:35.406Z,14.37
2018-01-02T19:01:05.114Z,11.93
2018-01-02T19:03:34.178Z,9.57
2018-01-02T19:06:03.998Z,10.20
2018-01-02T19:08:33.036Z,11.20
2018-01-02T19:11:02.044Z,9.10
2018-01-02T19:13:31.782Z,8.07
2018-01-02T19:16:02.519Z,12.50
2018-01-02T19:18:32.393Z,10.03
2018-01-02T19:21:02.314Z,9.23
2018-01-02T19:23:34.303Z,14.47
2018-01-02T19:26:03.463Z,16.80
2018-01-02T19:28:33.231Z,7.97
2018-01-02T19:31:02.170Z,11.40
2018-01-02T19:33:31.254Z,11.23
2018-01-02T19:36:01.084Z,10.50
2018-01-02T19:38:32.098Z,18.40
2018-01-02T19:41:02.915Z,22.57
2018-01-02T19:43:32.858Z,14.67
2018-01-02T19:46:02.703Z,19.60
2018-01-02T19:48:32.315Z,15.90
2018-01-02T19:51:01.294Z,20.73
2018-01-02T19:53:33.864Z,16.17
2018-01-02T19:56:02.916Z,12.90
2018-01-02T19:58:32.736Z,8.17
2018-01-02T20:01:01.676Z,12.83
2018-01-02T20:03:31.362Z,12.13
2018-01-02T20:06:00.903Z,8.40
2018-01-02T20:08:29.940Z,13.37
2018-01-02T20:10:58.877Z,10.40
2018-01-02T20:13:27.801Z,11.70
2018-01-02T20:15:56.751Z,8.33
2018-01-02T20:18:31.689Z,9.30
2018-01-02T20:21:02.127Z,7.70
2018-01-02T20:23:31.097Z,7.90
2018-01-02T20:26:00.877Z,8.20
2018-01-02T20:28:32.126Z,11.60
2018-01-02T20:31:02.343Z,9.67
2018-01-02T20:33:31.916Z,6.97
2018-01-02T20:36:01.421Z,4.30
2018-01-02T20:38:30.763Z,7.03
2018-01-02T20:41:01.046Z,9.17
2018-01-02T20:43:30.178Z,3.90
2018-01-02T20:45:59.855Z,6.33
2018-01-02T20:48:32.035Z,5.70
2018-01-02T20:51:01.528Z,3.73
2018-01-02T20:53:31.262Z,2.53
2018-01-02T20:56:00.367Z,1.67
2018-01-02T20:58:30.970Z,1.60
2018-01-02T21:01:00.830Z,3.27
2018-01-02T21:03:31.618Z,2.13
2018-01-02T21:06:01.962Z,1.83
2018-01-02T21:08:33.899Z,3.30
2018-01-02T21:11:02.912Z,1.57
2018-01-02T21:13:31.896Z,4.60
2018-01-02T21:16:01.850Z,1.17
2018-01-02T21:18:30.773Z,2.00
2018-01-02T21:21:00.336Z,4.97
2018-01-02T21:23:31.020Z,1.53
2018-01-02T21:26:00.413Z,2.17
2018-01-02T21:28:29.556Z,2.80
2018-01-02T21:31:00.898Z,0.90
2018-01-02T21:33:30.967Z,3.93
2018-01-02T21:36:01.444Z,2.97
2018-01-02T21:38:31.873Z,1.83
2018-01-02T21:41:02.578Z,1.70
2018-01-02T21:43:33.030Z,1.53
2018-01-02T21:46:02.125Z,2.47
2018-01-02T21:48:33.583Z,3.10
2018-01-02T21:51:04.616Z,1.20
2018-01-02T21:53:35.255Z,1.30
2018-01-02T21:56:05.015Z,2.30
2018-01-02T21:58:35.181Z,1.70
2018-01-02T22:01:05.870Z,1.00
2018-01-02T22:03:35.731Z,2.40
2018-01-02T22:06:05.624Z,1.13
2018-01-02T22:08:36.456Z,1.57
2018-01-02T22:11:05.529Z,1.70
2018-01-02T22:13:35.583Z,1.90
2018-01-02T22:16:05.466Z,4.50
2018-01-02T22:18:34.520Z,2.50
2018-01-02T22:21:04.460Z,1.47
2018-01-02T22:23:33.645Z,3.10
2018-01-02T22:26:02.665Z,1.17
2018-01-02T22:28:33.245Z,1.60
2018-01-02T22:31:02.121Z,2.03
2018-01-02T22:33:30.969Z,1.33
2018-01-02T22:35:59.874Z,1.40
2018-01-02T22:38:28.968Z,2.33
2018-01-02T22:40:57.778Z,3.93
2018-01-02T22:43:26.744Z,13.23
2018-01-02T22:45:56.489Z,7.03
2018-01-02T22:48:25.479Z,3.40
2018-01-02T22:50:54.321Z,3.43
2018-01-02T22:53:23.285Z,2.67
2018-01-02T22:55:52.095Z,1.43
2018-01-02T22:58:21.091Z,1.30
2018-01-02T23:00:49.905Z,2.03
2018-01-02T23:03:19.541Z,3.33
2018-01-02T23:05:48.351Z,4.87
2018-01-02T23:08:17.225Z,3.40
2018-01-02T23:10:46.081Z,1.40
2018-01-02T23:13:14.905Z,1.40
2018-01-02T23:15:44.204Z,2.33
2018-01-02T23:18:13.824Z,3.70
2018-01-02T23:20:42.637Z,3.77
2018-01-02T23:23:11.488Z,1.40
2018-01-02T23:25:40.329Z,1.13
2018-01-02T23:28:09.186Z,2.37
2018-01-02T23:30:38.019Z,4.13
2018-01-02T23:33:07.620Z,1.40
2018-01-02T23:35:36.464Z,2.33
2018-01-02T23:38:05.290Z,2.37
2018-01-02T23:40:34.328Z,1.33
2018-01-02T23:43:03.182Z,2.40
2018-01-02T23:45:32.006Z,1.97
2018-01-02T23:48:01.957Z,1.60
2018-01-02T23:50:30.786Z,2.43
2018-01-02T23:53:00.421Z,2.70
2018-01-02T23:55:30.006Z,4.30
2018-01-02T23:57:59.602Z,3.10
